Time,TemperatureF,DewpointF,PressureIn,WindDirection,WindDirectionDegrees,WindSpeedMPH,WindSpeedGustMPH,Humidity,HourlyPrecipIn,Conditions,Clouds,dailyrainin,SoftwareType,DateUTC
2013-02-11 05:21:00,55.0,54.0,30.14,WSW,240,0.0,1.0,97,0.05,,,0.35,,2013-02-11 10:21:00,
2013-02-11 05:32:00,56.0,55.0,30.14,SSE,153,1.0,2.0,97,0.05,,,0.36,,2013-02-11 10:32:00,
2013-02-11 05:42:00,56.0,55.0,30.14,SSE,153,1.0,2.0,97,0.05,,,0.36,,2013-02-11 10:42:00,
2013-02-11 05:52:00,57.0,56.0,30.14,South,184,2.0,5.0,97,0.06,,,0.38,,2013-02-11 10:52:00,
2013-02-11 06:02:00,57.0,56.0,30.14,West,278,1.0,3.0,97,0.09,,,0.42,,2013-02-11 11:02:00,
2013-02-11 06:11:00,57.0,56.0,30.14,West,278,1.0,3.0,97,0.09,,,0.42,,2013-02-11 11:11:00,
2013-02-11 06:22:00,58.0,57.0,30.14,SW,231,1.0,6.0,97,0.09,,,0.44,,2013-02-11 11:22:00,
2013-02-11 06:32:00,58.0,57.0,30.14,WSW,252,0.0,2.0,97,0.08,,,0.44,,2013-02-11 11:32:00,
2013-02-11 06:42:00,58.0,57.0,30.15,SE,127,0.0,3.0,97,0.08,,,0.46,,2013-02-11 11:42:00,
2013-02-11 06:52:00,58.0,57.0,30.15,SE,127,0.0,3.0,97,0.08,,,0.46,,2013-02-11 11:52:00,
2013-02-11 07:03:00,58.0,57.0,30.15,West,266,0.0,3.0,97,0.05,,,0.47,,2013-02-11 12:03:00,
2013-02-11 07:12:00,58.0,57.0,30.15,West,266,0.0,3.0,97,0.05,,,0.47,,2013-02-11 12:12:00,
2013-02-11 07:22:00,58.0,57.0,30.15,NNW,335,1.0,2.0,97,0.08,,,0.52,,2013-02-11 12:22:00,
2013-02-11 07:32:00,59.0,58.0,30.14,West,263,2.0,5.0,97,0.16,,,0.60,,2013-02-11 12:32:00,
2013-02-11 07:42:00,59.0,58.0,30.14,WSW,246,1.0,8.0,97,0.18,,,0.64,,2013-02-11 12:42:00,
2013-02-11 07:52:00,59.0,58.0,30.14,WSW,246,1.0,8.0,97,0.18,,,0.64,,2013-02-11 12:52:00,
2013-02-11 08:02:00,59.0,58.0,30.14,SW,235,1.0,6.0,97,0.17,,,0.64,,2013-02-11 13:02:00,
2013-02-11 08:12:00,59.0,58.0,30.14,WSW,250,1.0,5.0,97,0.12,,,0.64,,2013-02-11 13:12:00,
2013-02-11 08:22:00,59.0,58.0,30.14,WSW,250,1.0,5.0,97,0.12,,,0.64,,2013-02-11 13:22:00,
2013-02-11 08:33:00,60.0,59.0,30.14,WSW,252,2.0,7.0,97,0.03,,,0.64,,2013-02-11 13:33:00,
2013-02-11 08:42:00,60.0,59.0,30.14,WSW,252,2.0,7.0,97,0.03,,,0.64,,2013-02-11 13:42:00,
2013-02-11 08:52:00,60.0,59.0,30.15,SW,232,1.0,5.0,97,0.03,,,0.67,,2013-02-11 13:52:00,
2013-02-11 09:02:00,60.0,59.0,30.15,West,259,1.0,4.0,97,0.09,,,0.73,,2013-02-11 14:02:00,
2013-02-11 09:12:00,60.0,59.0,30.15,West,259,1.0,4.0,97,0.09,,,0.73,,2013-02-11 14:12:00,
2013-02-11 09:22:00,60.0,59.0,30.15,South,191,1.0,2.0,97,0.23,,,0.87,,2013-02-11 14:22:00,
2013-02-11 09:33:00,60.0,59.0,30.15,West,269,1.0,3.0,97,0.29,,,0.93,,2013-02-11 14:33:00,
2013-02-11 09:42:00,61.0,60.0,30.15,East,85,1.0,4.0,97,0.27,,,0.94,,2013-02-11 14:42:00,
2013-02-11 09:53:00,61.0,60.0,30.15,East,85,1.0,4.0,97,0.27,,,0.94,,2013-02-11 14:53:00,
2013-02-11 10:02:00,61.0,60.0,30.14,WSW,257,1.0,6.0,97,0.21,,,0.94,,2013-02-11 15:02:00,
2013-02-11 10:11:00,61.0,60.0,30.14,WSW,257,1.0,6.0,97,0.21,,,0.94,,2013-02-11 15:11:00,
2013-02-11 10:22:00,61.0,60.0,30.14,West,266,1.0,9.0,97,0.08,,,0.95,,2013-02-11 15:22:00,
2013-02-11 10:32:00,61.0,60.0,30.13,South,191,2.0,8.0,97,0.02,,,0.95,,2013-02-11 15:32:00,
2013-02-11 10:42:00,61.0,60.0,30.13,WSW,248,1.0,5.0,97,0.02,,,0.96,,2013-02-11 15:42:00,
2013-02-11 10:52:00,61.0,60.0,30.13,WSW,248,1.0,5.0,97,0.02,,,0.96,,2013-02-11 15:52:00,
2013-02-11 11:02:00,62.0,61.0,30.12,SW,231,1.0,5.0,97,0.02,,,0.96,,2013-02-11 16:02:00,
2013-02-11 11:12:00,62.0,61.0,30.12,SW,231,1.0,5.0,97,0.02,,,0.96,,2013-02-11 16:12:00,
2013-02-11 11:22:00,62.0,61.0,30.12,West,270,1.0,7.0,96,0.01,,,0.96,,2013-02-11 16:22:00,
2013-02-11 11:32:00,62.0,61.0,30.10,East,81,2.0,5.0,96,0.01,,,0.96,,2013-02-11 16:32:00,
2013-02-11 11:42:00,62.0,61.0,30.11,SSW,201,1.0,5.0,95,0.00,,,0.96,,2013-02-11 16:42:00,
2013-02-11 11:53:00,62.0,61.0,30.11,SSW,201,1.0,5.0,95,0.00,,,0.96,,2013-02-11 16:53:00,
2013-02-11 12:02:00,63.0,62.0,30.10,SSE,149,2.0,8.0,95,0.00,,,0.96,,2013-02-11 17:02:00,
2013-02-11 12:11:00,63.0,62.0,30.10,SSE,149,2.0,8.0,95,0.00,,,0.96,,2013-02-11 17:11:00,
2013-02-11 12:22:00,64.0,62.0,30.10,WSW,257,2.0,5.0,94,0.00,,,0.96,,2013-02-11 17:22:00,
2013-02-11 12:32:00,65.0,63.0,30.10,West,280,1.0,6.0,93,0.00,,,0.96,,2013-02-11 17:32:00,
2013-02-11 12:42:00,65.0,63.0,30.10,West,280,1.0,6.0,93,0.00,,,0.96,,2013-02-11 17:42:00,
2013-02-11 12:53:00,65.0,63.0,30.10,WSW,255,3.0,14.0,92,0.00,,,0.96,,2013-02-11 17:53:00,
2013-02-11 13:02:00,66.0,64.0,30.09,NW,318,1.0,5.0,92,0.00,,,0.96,,2013-02-11 18:02:00,
2013-02-11 13:11:00,66.0,64.0,30.09,NW,318,1.0,5.0,92,0.00,,,0.96,,2013-02-11 18:11:00,
2013-02-11 13:22:00,67.0,64.0,30.10,WSW,249,0.0,4.0,90,0.00,,,0.96,,2013-02-11 18:22:00,
2013-02-11 13:32:00,68.0,65.0,30.09,South,191,0.0,3.0,89,0.00,,,0.96,,2013-02-11 18:32:00,
2013-02-11 13:42:00,67.0,63.0,30.09,South,187,3.0,7.0,87,0.00,,,0.96,,2013-02-11 18:42:00,
2013-02-11 13:54:00,67.0,63.0,30.09,South,187,3.0,7.0,87,0.00,,,0.96,,2013-02-11 18:54:00,
2013-02-11 14:02:00,67.0,63.0,30.08,SSW,203,2.0,6.0,88,0.00,,,0.96,,2013-02-11 19:02:00,
2013-02-11 14:11:00,66.0,62.0,30.08,NNW,334,3.0,9.0,87,0.00,,,0.96,,2013-02-11 19:11:00,
2013-02-11 14:22:00,66.0,62.0,30.08,NNW,334,3.0,9.0,87,0.00,,,0.96,,2013-02-11 19:22:00,
2013-02-11 14:32:00,67.0,63.0,30.07,West,263,1.0,4.0,88,0.00,,,0.96,,2013-02-11 19:32:00,
2013-02-11 14:42:00,67.0,63.0,30.07,West,263,1.0,4.0,88,0.00,,,0.96,,2013-02-11 19:42:00,
2013-02-11 14:52:00,67.0,63.0,30.06,SW,232,3.0,7.0,87,0.00,,,0.96,,2013-02-11 19:52:00,
2013-02-11 15:01:00,68.0,64.0,30.07,WSW,255,1.0,8.0,86,0.00,,,0.96,,2013-02-11 20:01:00,
2013-02-11 15:11:00,69.0,65.0,30.06,WSW,249,1.0,3.0,86,0.00,,,0.96,,2013-02-11 20:11:00,
2013-02-11 15:22:00,69.0,65.0,30.06,WSW,249,1.0,3.0,86,0.00,,,0.96,,2013-02-11 20:22:00,
2013-02-11 15:32:00,68.0,63.0,30.06,SSW,195,4.0,10.0,84,0.00,,,0.96,,2013-02-11 20:32:00,
2013-02-11 15:42:00,67.0,63.0,30.07,West,271,1.0,11.0,87,0.00,,,0.96,,2013-02-11 20:42:00,
2013-02-11 15:52:00,67.0,63.0,30.07,West,271,1.0,11.0,87,0.00,,,0.96,,2013-02-11 20:52:00,
2013-02-11 16:02:00,67.0,64.0,30.08,WSW,249,1.0,7.0,89,0.00,,,0.96,,2013-02-11 21:02:00,
2013-02-11 16:12:00,65.0,63.0,30.08,SW,236,0.0,3.0,92,0.03,,,0.99,,2013-02-11 21:12:00,
2013-02-11 16:22:00,65.0,63.0,30.08,SW,236,0.0,3.0,92,0.03,,,0.99,,2013-02-11 21:22:00,
2013-02-11 16:32:00,65.0,63.0,30.07,SW,232,1.0,1.0,94,0.06,,,1.02,,2013-02-11 21:32:00,
2013-02-11 16:42:00,65.0,63.0,30.07,SW,232,1.0,1.0,94,0.06,,,1.02,,2013-02-11 21:42:00,
2013-02-11 16:52:00,64.0,63.0,30.07,WSW,239,0.0,2.0,95,0.06,,,1.02,,2013-02-11 21:52:00,
2013-02-11 17:02:00,64.0,63.0,30.07,West,276,0.0,1.0,96,0.08,,,1.04,,2013-02-11 22:02:00,
2013-02-11 17:12:00,63.0,62.0,30.08,SSW,208,0.0,3.0,95,0.11,,,1.10,,2013-02-11 22:12:00,
2013-02-11 17:22:00,63.0,62.0,30.08,SSW,208,0.0,3.0,95,0.11,,,1.10,,2013-02-11 22:22:00,
2013-02-11 17:32:00,62.0,61.0,30.08,SSW,198,0.0,1.0,95,0.10,,,1.12,,2013-02-11 22:32:00,
2013-02-11 17:42:00,62.0,61.0,30.08,SSW,198,0.0,1.0,95,0.10,,,1.12,,2013-02-11 22:42:00,
2013-02-11 17:52:00,61.0,60.0,30.09,WSW,243,0.0,1.0,95,0.10,,,1.12,,2013-02-11 22:52:00,
2013-02-11 18:02:00,61.0,60.0,30.09,West,277,0.0,1.0,96,0.10,,,1.14,,2013-02-11 23:02:00,
2013-02-11 18:11:00,61.0,60.0,30.09,West,277,0.0,1.0,96,0.10,,,1.14,,2013-02-11 23:11:00,
2013-02-11 18:22:00,62.0,61.0,30.08,West,269,1.0,2.0,97,0.04,,,1.15,,2013-02-11 23:22:00,
2013-02-11 18:32:00,62.0,61.0,30.08,West,262,0.0,1.0,97,0.04,,,1.15,,2013-02-11 23:32:00,
2013-02-11 18:42:00,62.0,61.0,30.08,West,262,0.0,1.0,97,0.04,,,1.15,,2013-02-11 23:42:00,
2013-02-11 18:52:00,62.0,61.0,30.08,SSW,207,0.0,1.0,97,0.02,,,1.15,,2013-02-11 23:52:00,
2013-02-11 19:02:00,62.0,61.0,30.09,SW,217,1.0,5.0,97,0.01,,,1.15,,2013-02-12 00:02:00,
2013-02-11 19:12:00,62.0,61.0,30.09,SW,217,1.0,5.0,97,0.01,,,1.15,,2013-02-12 00:12:00,
2013-02-11 19:22:00,62.0,61.0,30.09,SSW,212,0.0,1.0,97,0.01,,,1.16,,2013-02-12 00:22:00,
2013-02-11 19:32:00,62.0,61.0,30.09,SW,217,0.0,1.0,97,0.01,,,1.16,,2013-02-12 00:32:00,
2013-02-11 19:42:00,62.0,61.0,30.09,SW,217,0.0,1.0,97,0.01,,,1.16,,2013-02-12 00:42:00,
2013-02-11 19:52:00,61.0,60.0,30.10,WSW,250,0.0,1.0,97,0.02,,,1.17,,2013-02-12 00:52:00,
2013-02-11 20:02:00,61.0,60.0,30.10,SW,226,0.0,1.0,97,0.03,,,1.18,,2013-02-12 01:02:00,
2013-02-11 20:11:00,61.0,60.0,30.10,SW,226,0.0,1.0,97,0.03,,,1.18,,2013-02-12 01:11:00,
2013-02-11 20:22:00,61.0,60.0,30.08,SW,229,0.0,2.0,97,0.02,,,1.18,,2013-02-12 01:22:00,
2013-02-11 20:32:00,61.0,60.0,30.07,WSW,246,0.0,1.0,97,0.03,,,1.19,,2013-02-12 01:32:00,
2013-02-11 20:42:00,61.0,60.0,30.07,WSW,246,0.0,1.0,97,0.03,,,1.19,,2013-02-12 01:42:00,
2013-02-11 20:52:00,60.0,59.0,30.07,SW,233,0.0,1.0,97,0.02,,,1.19,,2013-02-12 01:52:00,
2013-02-11 21:02:00,60.0,59.0,30.09,SW,221,0.0,0.0,97,0.01,,,1.19,,2013-02-12 02:02:00,
2013-02-11 21:12:00,59.0,58.0,30.10,SW,228,0.0,0.0,97,0.02,,,1.20,,2013-02-12 02:12:00,
2013-02-11 21:22:00,59.0,58.0,30.10,SW,228,0.0,0.0,97,0.02,,,1.20,,2013-02-12 02:22:00,
2013-02-11 21:32:00,59.0,58.0,30.08,South,172,0.0,0.0,97,0.02,,,1.21,,2013-02-12 02:32:00,
2013-02-11 21:42:00,59.0,58.0,30.08,South,172,0.0,0.0,97,0.02,,,1.21,,2013-02-12 02:42:00,
2013-02-11 21:53:00,59.0,58.0,30.06,SSW,210,0.0,0.0,97,0.03,,,1.22,,2013-02-12 02:53:00,
2013-02-11 22:02:00,59.0,58.0,30.05,SSW,195,0.0,0.0,97,0.04,,,1.23,,2013-02-12 03:02:00,
2013-02-11 22:11:00,58.0,57.0,30.08,SSW,204,0.0,0.0,97,0.05,,,1.25,,2013-02-12 03:11:00,
2013-02-11 22:21:00,58.0,57.0,30.08,SSW,204,0.0,0.0,97,0.05,,,1.25,,2013-02-12 03:21:00,
2013-02-11 22:32:00,58.0,57.0,30.10,SSW,213,0.0,0.0,97,0.08,,,1.29,,2013-02-12 03:32:00,
2013-02-11 22:42:00,58.0,57.0,30.09,SSW,212,0.0,0.0,97,0.11,,,1.33,,2013-02-12 03:42:00,
2013-02-11 22:52:00,58.0,57.0,30.09,SSW,212,0.0,0.0,97,0.11,,,1.33,,2013-02-12 03:52:00,
2013-02-11 23:01:00,58.0,57.0,30.09,SSW,212,0.0,0.0,97,0.12,,,1.35,,2013-02-12 04:01:00,
2013-02-11 23:11:00,58.0,57.0,30.09,SSW,212,0.0,0.0,97,0.12,,,1.35,,2013-02-12 04:11:00,
2013-02-11 23:21:00,58.0,57.0,30.09,WSW,243,0.0,0.0,97,0.13,,,1.38,,2013-02-12 04:21:00,
2013-02-11 23:32:00,58.0,57.0,30.09,SW,231,0.0,0.0,97,0.12,,,1.39,,2013-02-12 04:32:00,
2013-02-11 23:42:00,58.0,57.0,30.09,SW,231,0.0,0.0,97,0.12,,,1.39,,2013-02-12 04:42:00,
2013-02-11 23:52:00,57.0,56.0,30.09,WSW,253,0.0,2.0,97,0.11,,,1.42,,2013-02-12 04:52:00,